Time;durP1;ratioP1;P1;durP2;ratioP2;P2;SDS_P1;SDS_P2;PMS_P1;PMS_P2;Temp;Humidity;BMP_temperature;BMP_pressure;BME280_temperature;BME280_humidity;BME280_pressure;Samples;Min_cycle;Max_cycle;Signal;HPM_P1;HPM_P2
2023/10/18 17:49:42;;;;;;;3.03;1.70;;;13.60;99.90;;;;;;4251781;27;20692;-82
2023/10/18 17:52:09;;;;;;;5.70;2.03;;;13.50;99.90;;;;;;4883247;29;20654;-85
2023/10/18 17:54:39;;;;;;;3.97;1.70;;;13.50;99.90;;;;;;4905065;29;20239;-83
2023/10/18 17:57:10;;;;;;;2.97;1.67;;;13.50;99.90;;;;;;4901530;29;20221;-80
2023/10/18 17:59:37;;;;;;;3.83;2.00;;;13.60;99.90;;;;;;4899375;29;20312;-77
2023/10/18 18:02:05;;;;;;;3.30;1.90;;;13.50;99.90;;;;;;4898610;29;20260;-83
2023/10/18 18:04:33;;;;;;;4.90;1.93;;;13.50;99.90;;;;;;4898657;29;20230;-84
2023/10/18 18:07:03;;;;;;;6.20;2.20;;;13.50;99.90;;;;;;4901004;29;20249;-84
2023/10/18 18:09:30;;;;;;;3.27;2.23;;;13.50;99.90;;;;;;4904695;29;20206;-82
2023/10/18 18:11:57;;;;;;;5.57;2.77;;;13.50;99.90;;;;;;4899091;29;20206;-84
2023/10/18 18:14:24;;;;;;;3.80;2.20;;;13.50;99.90;;;;;;4898618;29;20233;-85
2023/10/18 18:16:51;;;;;;;4.80;2.50;;;13.60;99.90;;;;;;4898370;29;20228;-84
2023/10/18 18:19:19;;;;;;;5.20;3.07;;;13.50;99.90;;;;;;4898556;29;20266;-84
2023/10/18 18:21:46;;;;;;;3.50;2.10;;;13.50;99.90;;;;;;4898295;29;20742;-83
2023/10/18 18:24:14;;;;;;;3.37;2.20;;;13.50;99.90;;;;;;4898317;29;20306;-80
2023/10/18 18:26:48;;;;;;;3.93;2.17;;;13.60;99.90;;;;;;4898307;29;20250;-81
2023/10/18 18:29:16;;;;;;;6.33;2.30;;;13.50;99.90;;;;;;4898077;29;20729;-83
2023/10/18 18:31:43;;;;;;;5.33;2.13;;;13.60;99.90;;;;;;4898524;29;20215;-83
2023/10/18 18:34:10;;;;;;;6.33;3.23;;;13.60;99.90;;;;;;4902041;29;20220;-84
2023/10/18 18:36:40;;;;;;;3.60;2.30;;;13.60;99.90;;;;;;4890207;29;20323;-80
2023/10/18 18:39:07;;;;;;;3.73;2.30;;;13.50;99.90;;;;;;4886199;29;20214;-79
2023/10/18 18:41:36;;;;;;;7.93;2.60;;;13.50;99.90;;;;;;4899395;29;20217;-81
2023/10/18 18:44:03;;;;;;;4.73;2.40;;;13.50;99.90;;;;;;4901996;29;20218;-82
2023/10/18 18:46:30;;;;;;;3.73;2.33;;;13.60;99.90;;;;;;4901001;29;20332;-84
2023/10/18 18:48:57;;;;;;;4.53;2.33;;;13.50;99.90;;;;;;4901570;29;20244;-84
2023/10/18 18:51:26;;;;;;;5.23;2.60;;;13.60;99.90;;;;;;4901398;29;20252;-82
2023/10/18 18:53:54;;;;;;;5.27;2.63;;;13.60;99.90;;;;;;4901185;29;20245;-83
2023/10/18 18:56:21;;;;;;;3.67;2.17;;;13.60;99.90;;;;;;4901323;29;20312;-82
2023/10/18 18:58:49;;;;;;;3.73;2.40;;;13.70;99.90;;;;;;4901575;29;20279;-82
2023/10/18 19:01:18;;;;;;;4.97;2.07;;;13.70;99.90;;;;;;4901173;29;20245;-82
2023/10/18 19:03:45;;;;;;;6.67;2.70;;;13.70;99.90;;;;;;4900768;29;20220;-82
2023/10/18 19:06:11;;;;;;;4.80;2.40;;;13.70;99.90;;;;;;4897477;29;20241;-82
2023/10/18 19:08:38;;;;;;;4.60;2.50;;;13.60;99.90;;;;;;4898546;29;20238;-81
2023/10/18 19:11:05;;;;;;;3.17;2.23;;;13.60;99.90;;;;;;4901037;29;20297;-77
2023/10/18 19:13:32;;;;;;;5.27;2.50;;;13.70;99.90;;;;;;4901159;29;20224;-82
2023/10/18 19:16:05;;;;;;;4.97;2.30;;;13.70;99.90;;;;;;4900623;29;20317;-84
2023/10/18 19:18:32;;;;;;;5.07;2.93;;;13.70;99.90;;;;;;4888377;29;20207;-79
2023/10/18 19:21:06;;;;;;;4.53;2.40;;;13.70;99.90;;;;;;4900524;29;20605;-82
2023/10/18 19:23:33;;;;;;;5.20;2.20;;;13.70;99.90;;;;;;4900910;29;20214;-81
2023/10/18 19:25:59;;;;;;;4.10;2.43;;;13.70;99.90;;;;;;4900535;29;20258;-77
2023/10/18 19:28:27;;;;;;;5.53;2.70;;;13.70;99.90;;;;;;4900962;29;20242;-87
2023/10/18 19:30:54;;;;;;;7.53;2.77;;;13.70;99.90;;;;;;4900678;29;20253;-82
2023/10/18 19:33:23;;;;;;;7.10;2.20;;;13.70;99.90;;;;;;4900809;29;20253;-82
2023/10/18 19:35:50;;;;;;;5.13;2.93;;;13.70;99.90;;;;;;4900353;29;20773;-81
2023/10/18 19:38:18;;;;;;;7.07;3.37;;;13.80;99.90;;;;;;4890233;29;20312;-83
2023/10/18 19:40:45;;;;;;;6.07;3.40;;;13.80;99.90;;;;;;4897857;29;20210;-84
2023/10/18 19:43:12;;;;;;;4.63;2.80;;;13.90;99.90;;;;;;4900504;29;20237;-81
2023/10/18 19:45:39;;;;;;;6.20;2.77;;;13.90;99.90;;;;;;4899685;29;20226;-83
2023/10/18 19:48:06;;;;;;;7.47;3.10;;;13.90;99.90;;;;;;4900167;29;20329;-83
2023/10/18 19:50:38;;;;;;;3.90;2.30;;;14.00;99.90;;;;;;4899171;29;20304;-83
2023/10/18 19:53:05;;;;;;;4.13;2.73;;;14.00;99.90;;;;;;4899603;29;20241;-82
2023/10/18 19:55:32;;;;;;;7.07;3.30;;;14.00;99.90;;;;;;4899286;29;20226;-81
2023/10/18 19:57:58;;;;;;;8.40;3.30;;;14.00;99.90;;;;;;4899503;29;20618;-81
2023/10/18 20:00:25;;;;;;;5.60;2.97;;;14.10;99.90;;;;;;4899286;29;20238;-82
2023/10/18 20:02:52;;;;;;;4.47;2.10;;;14.10;99.90;;;;;;4899280;29;20234;-83
2023/10/18 20:05:19;;;;;;;6.53;2.87;;;14.10;99.90;;;;;;4899003;29;20241;-82
2023/10/18 20:07:47;;;;;;;6.97;2.93;;;14.20;99.90;;;;;;4899258;29;20798;-82
